sensor_id;sensor_type;location;lat;lon;timestamp;temperature;humidity
18721;DHT22;9489;50.948;3.114;2023-06-22T00:00:56;20.30;1.00
18721;DHT22;9489;50.948;3.114;2023-06-22T00:03:23;20.30;1.00
18721;DHT22;9489;50.948;3.114;2023-06-22T00:05:50;20.20;1.00
18721;DHT22;9489;50.948;3.114;2023-06-22T00:08:17;20.20;1.00
18721;DHT22;9489;50.948;3.114;2023-06-22T00:10:43;20.30;1.00
18721;DHT22;9489;50.948;3.114;2023-06-22T00:13:09;20.30;1.00
18721;DHT22;9489;50.948;3.114;2023-06-22T00:15:36;20.30;1.00
18721;DHT22;9489;50.948;3.114;2023-06-22T00:18:03;20.20;1.00
18721;DHT22;9489;50.948;3.114;2023-06-22T00:20:29;20.20;1.00
18721;DHT22;9489;50.948;3.114;2023-06-22T00:22:57;20.10;1.00
18721;DHT22;9489;50.948;3.114;2023-06-22T00:25:23;20.10;1.00
18721;DHT22;9489;50.948;3.114;2023-06-22T00:27:49;20.00;1.00
18721;DHT22;9489;50.948;3.114;2023-06-22T00:30:16;20.00;1.00
18721;DHT22;9489;50.948;3.114;2023-06-22T00:32:42;20.00;1.00
18721;DHT22;9489;50.948;3.114;2023-06-22T00:35:08;19.90;1.00
18721;DHT22;9489;50.948;3.114;2023-06-22T00:37:38;19.80;1.00
18721;DHT22;9489;50.948;3.114;2023-06-22T00:40:08;19.90;1.00
18721;DHT22;9489;50.948;3.114;2023-06-22T00:42:36;19.80;1.00
18721;DHT22;9489;50.948;3.114;2023-06-22T00:45:02;19.70;1.00
18721;DHT22;9489;50.948;3.114;2023-06-22T00:47:28;19.60;7.50
18721;DHT22;9489;50.948;3.114;2023-06-22T00:49:54;19.50;9.30
18721;DHT22;9489;50.948;3.114;2023-06-22T00:52:21;19.50;1.00
18721;DHT22;9489;50.948;3.114;2023-06-22T00:54:56;19.50;7.50
18721;DHT22;9489;50.948;3.114;2023-06-22T00:57:22;19.50;2.00
18721;DHT22;9489;50.948;3.114;2023-06-22T00:59:53;19.50;27.50
18721;DHT22;9489;50.948;3.114;2023-06-22T01:02:19;19.50;39.40
18721;DHT22;9489;50.948;3.114;2023-06-22T01:04:45;19.50;28.80
18721;DHT22;9489;50.948;3.114;2023-06-22T01:07:20;19.60;22.70
18721;DHT22;9489;50.948;3.114;2023-06-22T01:12:32;19.70;7.90
18721;DHT22;9489;50.948;3.114;2023-06-22T01:15:18;19.60;19.00
18721;DHT22;9489;50.948;3.114;2023-06-22T01:17:48;19.60;12.90
18721;DHT22;9489;50.948;3.114;2023-06-22T01:20:15;19.60;22.80
18721;DHT22;9489;50.948;3.114;2023-06-22T01:23:11;19.60;14.60
18721;DHT22;9489;50.948;3.114;2023-06-22T01:28:41;19.70;1.00
18721;DHT22;9489;50.948;3.114;2023-06-22T01:31:10;19.60;1.00
18721;DHT22;9489;50.948;3.114;2023-06-22T01:33:40;19.60;1.00
18721;DHT22;9489;50.948;3.114;2023-06-22T01:36:06;19.60;1.00
18721;DHT22;9489;50.948;3.114;2023-06-22T01:38:32;19.60;1.00
18721;DHT22;9489;50.948;3.114;2023-06-22T01:40:59;19.60;1.00
18721;DHT22;9489;50.948;3.114;2023-06-22T01:43:26;19.60;1.00
18721;DHT22;9489;50.948;3.114;2023-06-22T01:45:54;19.60;1.00
18721;DHT22;9489;50.948;3.114;2023-06-22T01:48:20;19.50;1.00
18721;DHT22;9489;50.948;3.114;2023-06-22T01:50:47;19.50;1.00
18721;DHT22;9489;50.948;3.114;2023-06-22T01:53:12;19.40;1.00
18721;DHT22;9489;50.948;3.114;2023-06-22T01:55:38;19.40;1.00
18721;DHT22;9489;50.948;3.114;2023-06-22T01:58:04;19.40;1.00
18721;DHT22;9489;50.948;3.114;2023-06-22T02:00:33;19.40;1.00
18721;DHT22;9489;50.948;3.114;2023-06-22T02:03:11;19.30;1.00
18721;DHT22;9489;50.948;3.114;2023-06-22T02:05:46;19.30;1.00
18721;DHT22;9489;50.948;3.114;2023-06-22T02:08:20;19.30;1.00
18721;DHT22;9489;50.948;3.114;2023-06-22T02:10:48;19.20;1.00
18721;DHT22;9489;50.948;3.114;2023-06-22T02:13:14;19.10;1.00
18721;DHT22;9489;50.948;3.114;2023-06-22T02:15:42;19.20;1.00
18721;DHT22;9489;50.948;3.114;2023-06-22T02:18:08;19.10;1.00
18721;DHT22;9489;50.948;3.114;2023-06-22T02:20:37;19.10;1.00
18721;DHT22;9489;50.948;3.114;2023-06-22T02:23:02;19.00;1.00
18721;DHT22;9489;50.948;3.114;2023-06-22T02:25:28;19.10;1.00
18721;DHT22;9489;50.948;3.114;2023-06-22T02:27:54;19.00;1.00
18721;DHT22;9489;50.948;3.114;2023-06-22T02:30:19;19.00;1.00
18721;DHT22;9489;50.948;3.114;2023-06-22T02:32:45;18.90;1.00
18721;DHT22;9489;50.948;3.114;2023-06-22T02:35:11;18.90;14.00
18721;DHT22;9489;50.948;3.114;2023-06-22T02:37:37;18.80;14.80
18721;DHT22;9489;50.948;3.114;2023-06-22T02:40:10;18.80;21.30
18721;DHT22;9489;50.948;3.114;2023-06-22T02:42:36;18.80;16.60
18721;DHT22;9489;50.948;3.114;2023-06-22T02:45:02;18.80;25.60
18721;DHT22;9489;50.948;3.114;2023-06-22T02:47:28;18.70;39.90
18721;DHT22;9489;50.948;3.114;2023-06-22T02:49:53;18.60;40.90
18721;DHT22;9489;50.948;3.114;2023-06-22T02:52:19;18.70;28.80
18721;DHT22;9489;50.948;3.114;2023-06-22T02:54:45;18.60;43.50
18721;DHT22;9489;50.948;3.114;2023-06-22T02:57:11;18.60;44.60
18721;DHT22;9489;50.948;3.114;2023-06-22T02:59:39;18.60;46.30
18721;DHT22;9489;50.948;3.114;2023-06-22T03:02:06;18.60;43.30
18721;DHT22;9489;50.948;3.114;2023-06-22T03:04:32;18.50;50.30
18721;DHT22;9489;50.948;3.114;2023-06-22T03:06:57;18.40;71.60
18721;DHT22;9489;50.948;3.114;2023-06-22T03:09:26;18.40;86.70
18721;DHT22;9489;50.948;3.114;2023-06-22T03:11:53;18.40;86.80
18721;DHT22;9489;50.948;3.114;2023-06-22T03:14:19;18.40;90.80
18721;DHT22;9489;50.948;3.114;2023-06-22T03:16:44;18.40;87.20
18721;DHT22;9489;50.948;3.114;2023-06-22T03:19:10;18.40;77.70
18721;DHT22;9489;50.948;3.114;2023-06-22T03:21:37;18.40;76.00
18721;DHT22;9489;50.948;3.114;2023-06-22T03:24:04;18.40;70.10
18721;DHT22;9489;50.948;3.114;2023-06-22T03:26:30;18.40;78.10
18721;DHT22;9489;50.948;3.114;2023-06-22T03:28:56;18.40;73.50
18721;DHT22;9489;50.948;3.114;2023-06-22T03:31:22;18.30;91.00
18721;DHT22;9489;50.948;3.114;2023-06-22T03:33:48;18.40;75.80
18721;DHT22;9489;50.948;3.114;2023-06-22T03:36:15;18.40;68.50
18721;DHT22;9489;50.948;3.114;2023-06-22T03:38:47;18.40;68.30
18721;DHT22;9489;50.948;3.114;2023-06-22T03:41:13;18.40;63.70
18721;DHT22;9489;50.948;3.114;2023-06-22T03:43:39;18.30;75.90
18721;DHT22;9489;50.948;3.114;2023-06-22T03:46:05;18.40;72.10
18721;DHT22;9489;50.948;3.114;2023-06-22T03:48:30;18.30;70.90
18721;DHT22;9489;50.948;3.114;2023-06-22T03:50:56;18.40;59.10
18721;DHT22;9489;50.948;3.114;2023-06-22T03:53:22;18.40;45.10
18721;DHT22;9489;50.948;3.114;2023-06-22T03:55:49;18.40;50.90
18721;DHT22;9489;50.948;3.114;2023-06-22T03:58:16;18.40;49.10
18721;DHT22;9489;50.948;3.114;2023-06-22T04:00:48;18.30;60.40
18721;DHT22;9489;50.948;3.114;2023-06-22T04:03:15;18.40;49.50
18721;DHT22;9489;50.948;3.114;2023-06-22T04:05:41;18.50;49.60
18721;DHT22;9489;50.948;3.114;2023-06-22T04:08:07;18.50;35.10
18721;DHT22;9489;50.948;3.114;2023-06-22T04:10:33;18.50;39.40
18721;DHT22;9489;50.948;3.114;2023-06-22T04:12:59;18.50;30.30
18721;DHT22;9489;50.948;3.114;2023-06-22T04:15:25;18.50;20.60
18721;DHT22;9489;50.948;3.114;2023-06-22T04:17:51;18.50;25.50
18721;DHT22;9489;50.948;3.114;2023-06-22T04:20:16;18.50;30.90
18721;DHT22;9489;50.948;3.114;2023-06-22T04:22:42;18.50;28.10
18721;DHT22;9489;50.948;3.114;2023-06-22T04:25:08;18.50;20.90
18721;DHT22;9489;50.948;3.114;2023-06-22T04:27:34;18.60;28.70
18721;DHT22;9489;50.948;3.114;2023-06-22T04:30:06;18.60;21.00
18721;DHT22;9489;50.948;3.114;2023-06-22T04:32:35;18.70;22.80
18721;DHT22;9489;50.948;3.114;2023-06-22T04:35:05;18.70;3.40
18721;DHT22;9489;50.948;3.114;2023-06-22T04:37:32;18.80;1.00
18721;DHT22;9489;50.948;3.114;2023-06-22T04:39:58;18.80;1.00
18721;DHT22;9489;50.948;3.114;2023-06-22T04:42:26;18.80;1.00
18721;DHT22;9489;50.948;3.114;2023-06-22T04:44:52;19.00;1.00
18721;DHT22;9489;50.948;3.114;2023-06-22T04:47:17;19.10;1.00
18721;DHT22;9489;50.948;3.114;2023-06-22T04:49:43;19.20;1.00
18721;DHT22;9489;50.948;3.114;2023-06-22T04:52:10;19.20;1.00
18721;DHT22;9489;50.948;3.114;2023-06-22T04:54:38;19.30;1.00
18721;DHT22;9489;50.948;3.114;2023-06-22T04:57:06;19.40;1.00
18721;DHT22;9489;50.948;3.114;2023-06-22T04:59:35;19.40;1.00
18721;DHT22;9489;50.948;3.114;2023-06-22T05:02:02;19.50;1.00
18721;DHT22;9489;50.948;3.114;2023-06-22T05:04:29;19.60;1.00
18721;DHT22;9489;50.948;3.114;2023-06-22T05:06:56;19.60;1.00
18721;DHT22;9489;50.948;3.114;2023-06-22T05:09:22;19.70;1.00
18721;DHT22;9489;50.948;3.114;2023-06-22T05:11:49;19.70;1.00
18721;DHT22;9489;50.948;3.114;2023-06-22T05:14:15;19.80;1.00
18721;DHT22;9489;50.948;3.114;2023-06-22T05:16:44;19.70;1.00
18721;DHT22;9489;50.948;3.114;2023-06-22T05:19:10;19.80;1.00
18721;DHT22;9489;50.948;3.114;2023-06-22T05:21:36;19.70;1.00
18721;DHT22;9489;50.948;3.114;2023-06-22T05:24:02;19.70;1.00
18721;DHT22;9489;50.948;3.114;2023-06-22T05:26:29;19.80;1.00
18721;DHT22;9489;50.948;3.114;2023-06-22T05:28:56;19.90;1.00
18721;DHT22;9489;50.948;3.114;2023-06-22T05:31:22;20.00;1.00
18721;DHT22;9489;50.948;3.114;2023-06-22T05:33:49;20.00;1.00
18721;DHT22;9489;50.948;3.114;2023-06-22T05:36:15;20.10;1.00
18721;DHT22;9489;50.948;3.114;2023-06-22T05:38:41;20.30;1.00
18721;DHT22;9489;50.948;3.114;2023-06-22T05:41:08;20.40;1.00
18721;DHT22;9489;50.948;3.114;2023-06-22T05:43:34;20.50;1.00
18721;DHT22;9489;50.948;3.114;2023-06-22T05:46:01;20.50;1.00
18721;DHT22;9489;50.948;3.114;2023-06-22T05:48:26;20.70;1.00
18721;DHT22;9489;50.948;3.114;2023-06-22T05:50:53;20.80;99.90
18721;DHT22;9489;50.948;3.114;2023-06-22T05:53:19;20.90;99.90
18721;DHT22;9489;50.948;3.114;2023-06-22T05:55:45;20.90;99.90
18721;DHT22;9489;50.948;3.114;2023-06-22T05:58:10;21.00;99.90
18721;DHT22;9489;50.948;3.114;2023-06-22T06:00:36;21.10;57.10
18721;DHT22;9489;50.948;3.114;2023-06-22T06:03:02;21.20;1.00
18721;DHT22;9489;50.948;3.114;2023-06-22T06:05:33;21.20;1.00
18721;DHT22;9489;50.948;3.114;2023-06-22T06:08:00;21.30;1.00
18721;DHT22;9489;50.948;3.114;2023-06-22T06:10:26;21.20;1.00
18721;DHT22;9489;50.948;3.114;2023-06-22T06:12:53;21.20;1.00
18721;DHT22;9489;50.948;3.114;2023-06-22T06:15:18;21.20;1.00
18721;DHT22;9489;50.948;3.114;2023-06-22T06:20:13;21.30;1.00
18721;DHT22;9489;50.948;3.114;2023-06-22T06:22:38;21.30;1.00
18721;DHT22;9489;50.948;3.114;2023-06-22T06:25:05;21.20;1.00
18721;DHT22;9489;50.948;3.114;2023-06-22T06:27:31;21.30;1.00
18721;DHT22;9489;50.948;3.114;2023-06-22T06:29:57;21.40;1.00
18721;DHT22;9489;50.948;3.114;2023-06-22T06:32:22;21.50;1.00
18721;DHT22;9489;50.948;3.114;2023-06-22T06:34:48;21.70;1.00
18721;DHT22;9489;50.948;3.114;2023-06-22T06:37:14;21.80;1.00
18721;DHT22;9489;50.948;3.114;2023-06-22T06:39:39;21.80;1.00
18721;DHT22;9489;50.948;3.114;2023-06-22T06:42:05;21.80;1.00
18721;DHT22;9489;50.948;3.114;2023-06-22T06:44:31;21.90;1.00
18721;DHT22;9489;50.948;3.114;2023-06-22T06:46:57;22.00;99.90
18721;DHT22;9489;50.948;3.114;2023-06-22T06:49:22;22.10;99.90
18721;DHT22;9489;50.948;3.114;2023-06-22T06:51:48;22.20;99.90
18721;DHT22;9489;50.948;3.114;2023-06-22T06:54:14;22.30;70.40
18721;DHT22;9489;50.948;3.114;2023-06-22T06:56:39;22.40;1.00
18721;DHT22;9489;50.948;3.114;2023-06-22T06:59:05;22.40;1.00
18721;DHT22;9489;50.948;3.114;2023-06-22T07:01:30;22.60;1.00
18721;DHT22;9489;50.948;3.114;2023-06-22T07:03:59;22.70;99.90
18721;DHT22;9489;50.948;3.114;2023-06-22T07:06:26;22.70;99.90
18721;DHT22;9489;50.948;3.114;2023-06-22T07:08:55;22.80;99.90
18721;DHT22;9489;50.948;3.114;2023-06-22T07:11:21;22.90;1.00
18721;DHT22;9489;50.948;3.114;2023-06-22T07:13:46;23.00;1.00
18721;DHT22;9489;50.948;3.114;2023-06-22T07:16:12;23.00;1.00
18721;DHT22;9489;50.948;3.114;2023-06-22T07:18:39;23.20;99.90
18721;DHT22;9489;50.948;3.114;2023-06-22T07:21:05;23.20;1.00
18721;DHT22;9489;50.948;3.114;2023-06-22T07:23:32;23.30;13.30
18721;DHT22;9489;50.948;3.114;2023-06-22T07:25:58;23.40;1.00
18721;DHT22;9489;50.948;3.114;2023-06-22T07:28:27;23.40;1.00
18721;DHT22;9489;50.948;3.114;2023-06-22T07:30:53;23.40;1.00
18721;DHT22;9489;50.948;3.114;2023-06-22T07:33:19;23.30;99.90
18721;DHT22;9489;50.948;3.114;2023-06-22T07:35:45;23.40;99.90
18721;DHT22;9489;50.948;3.114;2023-06-22T07:38:12;23.50;11.40
18721;DHT22;9489;50.948;3.114;2023-06-22T07:40:38;23.40;99.90
18721;DHT22;9489;50.948;3.114;2023-06-22T07:43:03;23.30;99.90
18721;DHT22;9489;50.948;3.114;2023-06-22T07:45:29;23.20;1.00
18721;DHT22;9489;50.948;3.114;2023-06-22T07:47:55;23.20;99.90
18721;DHT22;9489;50.948;3.114;2023-06-22T07:50:21;23.20;1.00
18721;DHT22;9489;50.948;3.114;2023-06-22T07:52:46;23.30;1.00
18721;DHT22;9489;50.948;3.114;2023-06-22T07:55:13;23.20;34.10
18721;DHT22;9489;50.948;3.114;2023-06-22T07:57:39;23.30;1.00
18721;DHT22;9489;50.948;3.114;2023-06-22T08:00:05;23.30;1.00
18721;DHT22;9489;50.948;3.114;2023-06-22T08:02:41;23.40;1.00
18721;DHT22;9489;50.948;3.114;2023-06-22T08:05:10;23.40;1.00
18721;DHT22;9489;50.948;3.114;2023-06-22T08:07:38;23.50;1.00
18721;DHT22;9489;50.948;3.114;2023-06-22T08:10:09;23.50;1.00
18721;DHT22;9489;50.948;3.114;2023-06-22T08:12:35;23.60;1.00
18721;DHT22;9489;50.948;3.114;2023-06-22T08:15:01;23.50;1.00
18721;DHT22;9489;50.948;3.114;2023-06-22T08:17:26;23.60;1.00
18721;DHT22;9489;50.948;3.114;2023-06-22T08:19:52;23.60;1.00
18721;DHT22;9489;50.948;3.114;2023-06-22T08:22:18;23.60;1.00
18721;DHT22;9489;50.948;3.114;2023-06-22T08:24:44;23.60;1.00
18721;DHT22;9489;50.948;3.114;2023-06-22T08:27:10;23.60;1.00
18721;DHT22;9489;50.948;3.114;2023-06-22T08:29:41;23.70;1.00
18721;DHT22;9489;50.948;3.114;2023-06-22T08:32:09;23.70;1.00
18721;DHT22;9489;50.948;3.114;2023-06-22T08:34:35;23.60;1.00
18721;DHT22;9489;50.948;3.114;2023-06-22T08:37:01;23.60;1.00
18721;DHT22;9489;50.948;3.114;2023-06-22T08:39:26;23.60;1.00
18721;DHT22;9489;50.948;3.114;2023-06-22T08:41:53;23.70;31.30
18721;DHT22;9489;50.948;3.114;2023-06-22T08:44:19;23.80;1.00
18721;DHT22;9489;50.948;3.114;2023-06-22T08:46:45;24.00;1.00
18721;DHT22;9489;50.948;3.114;2023-06-22T08:49:10;24.00;99.90
18721;DHT22;9489;50.948;3.114;2023-06-22T08:51:36;24.00;1.00
18721;DHT22;9489;50.948;3.114;2023-06-22T08:54:02;24.00;99.90
18721;DHT22;9489;50.948;3.114;2023-06-22T08:56:28;23.90;99.90
18721;DHT22;9489;50.948;3.114;2023-06-22T08:58:54;23.80;1.00
18721;DHT22;9489;50.948;3.114;2023-06-22T09:01:20;23.80;1.00
18721;DHT22;9489;50.948;3.114;2023-06-22T09:03:45;23.70;1.00
18721;DHT22;9489;50.948;3.114;2023-06-22T09:06:20;23.70;1.00
18721;DHT22;9489;50.948;3.114;2023-06-22T09:08:46;23.70;1.00
18721;DHT22;9489;50.948;3.114;2023-06-22T09:11:12;23.80;1.00
18721;DHT22;9489;50.948;3.114;2023-06-22T09:13:38;23.80;1.00
18721;DHT22;9489;50.948;3.114;2023-06-22T09:16:04;23.80;99.90
18721;DHT22;9489;50.948;3.114;2023-06-22T09:18:30;23.70;1.00
18721;DHT22;9489;50.948;3.114;2023-06-22T09:20:55;23.70;1.00
18721;DHT22;9489;50.948;3.114;2023-06-22T09:23:21;23.60;99.90
18721;DHT22;9489;50.948;3.114;2023-06-22T09:25:47;23.60;1.00
18721;DHT22;9489;50.948;3.114;2023-06-22T09:28:14;23.80;1.00
18721;DHT22;9489;50.948;3.114;2023-06-22T09:30:39;23.90;1.00
18721;DHT22;9489;50.948;3.114;2023-06-22T09:33:05;23.90;99.90
18721;DHT22;9489;50.948;3.114;2023-06-22T09:35:31;23.90;99.90
18721;DHT22;9489;50.948;3.114;2023-06-22T09:37:56;23.90;99.90
18721;DHT22;9489;50.948;3.114;2023-06-22T09:40:22;23.90;3.00
18721;DHT22;9489;50.948;3.114;2023-06-22T09:42:47;23.90;99.90
18721;DHT22;9489;50.948;3.114;2023-06-22T09:45:13;24.00;1.00
18721;DHT22;9489;50.948;3.114;2023-06-22T09:47:39;24.10;95.60
18721;DHT22;9489;50.948;3.114;2023-06-22T09:50:05;24.10;1.00
18721;DHT22;9489;50.948;3.114;2023-06-22T09:52:31;24.00;99.90
18721;DHT22;9489;50.948;3.114;2023-06-22T09:54:57;24.00;99.90
18721;DHT22;9489;50.948;3.114;2023-06-22T09:57:23;24.00;99.90
18721;DHT22;9489;50.948;3.114;2023-06-22T09:59:48;24.10;1.00
18721;DHT22;9489;50.948;3.114;2023-06-22T10:02:14;24.00;1.00
18721;DHT22;9489;50.948;3.114;2023-06-22T10:04:39;24.00;1.00
18721;DHT22;9489;50.948;3.114;2023-06-22T10:07:06;24.00;1.00
18721;DHT22;9489;50.948;3.114;2023-06-22T10:09:31;24.00;99.90
18721;DHT22;9489;50.948;3.114;2023-06-22T10:11:57;24.00;99.90
18721;DHT22;9489;50.948;3.114;2023-06-22T10:14:23;24.10;40.40
18721;DHT22;9489;50.948;3.114;2023-06-22T10:16:50;24.10;1.00
18721;DHT22;9489;50.948;3.114;2023-06-22T10:19:16;24.00;1.00
18721;DHT22;9489;50.948;3.114;2023-06-22T10:21:42;24.00;1.00
18721;DHT22;9489;50.948;3.114;2023-06-22T10:24:07;23.90;1.00
18721;DHT22;9489;50.948;3.114;2023-06-22T10:26:34;24.00;1.00
18721;DHT22;9489;50.948;3.114;2023-06-22T10:29:00;24.10;1.00
18721;DHT22;9489;50.948;3.114;2023-06-22T10:31:26;24.10;99.90
18721;DHT22;9489;50.948;3.114;2023-06-22T10:33:53;24.10;99.90
18721;DHT22;9489;50.948;3.114;2023-06-22T10:36:19;24.10;99.90
18721;DHT22;9489;50.948;3.114;2023-06-22T10:38:45;24.00;79.70
18721;DHT22;9489;50.948;3.114;2023-06-22T10:41:12;24.00;99.90
18721;DHT22;9489;50.948;3.114;2023-06-22T10:43:38;23.80;99.90
18721;DHT22;9489;50.948;3.114;2023-06-22T10:46:03;23.80;99.90
18721;DHT22;9489;50.948;3.114;2023-06-22T10:48:29;23.80;1.00
18721;DHT22;9489;50.948;3.114;2023-06-22T10:50:55;23.80;1.00
18721;DHT22;9489;50.948;3.114;2023-06-22T10:53:20;23.80;19.20
18721;DHT22;9489;50.948;3.114;2023-06-22T10:55:47;23.70;1.00
18721;DHT22;9489;50.948;3.114;2023-06-22T10:58:12;23.60;99.90
18721;DHT22;9489;50.948;3.114;2023-06-22T11:00:38;23.50;99.90
18721;DHT22;9489;50.948;3.114;2023-06-22T11:03:04;23.60;1.00
18721;DHT22;9489;50.948;3.114;2023-06-22T11:05:29;23.60;1.00
18721;DHT22;9489;50.948;3.114;2023-06-22T11:07:55;23.50;99.90
18721;DHT22;9489;50.948;3.114;2023-06-22T11:10:21;23.50;1.00
18721;DHT22;9489;50.948;3.114;2023-06-22T11:12:46;23.50;95.70
18721;DHT22;9489;50.948;3.114;2023-06-22T11:15:12;23.50;99.90
18721;DHT22;9489;50.948;3.114;2023-06-22T11:17:38;23.50;99.90
18721;DHT22;9489;50.948;3.114;2023-06-22T11:20:04;23.60;99.90
18721;DHT22;9489;50.948;3.114;2023-06-22T11:22:39;23.60;1.00
18721;DHT22;9489;50.948;3.114;2023-06-22T11:25:05;23.60;1.00
18721;DHT22;9489;50.948;3.114;2023-06-22T11:27:31;23.60;1.00
18721;DHT22;9489;50.948;3.114;2023-06-22T11:29:56;23.60;1.00
18721;DHT22;9489;50.948;3.114;2023-06-22T11:32:23;23.60;99.90
18721;DHT22;9489;50.948;3.114;2023-06-22T11:34:49;23.70;1.00
18721;DHT22;9489;50.948;3.114;2023-06-22T11:37:14;23.70;18.70
18721;DHT22;9489;50.948;3.114;2023-06-22T11:39:41;23.60;62.20
18721;DHT22;9489;50.948;3.114;2023-06-22T11:42:07;23.50;1.00
18721;DHT22;9489;50.948;3.114;2023-06-22T11:44:34;23.40;60.80
18721;DHT22;9489;50.948;3.114;2023-06-22T11:46:59;23.50;1.00
18721;DHT22;9489;50.948;3.114;2023-06-22T11:49:26;23.50;1.00
18721;DHT22;9489;50.948;3.114;2023-06-22T11:51:52;23.60;1.00
18721;DHT22;9489;50.948;3.114;2023-06-22T11:54:18;23.50;99.90
18721;DHT22;9489;50.948;3.114;2023-06-22T11:56:44;23.50;99.90
18721;DHT22;9489;50.948;3.114;2023-06-22T11:59:09;23.60;1.00
18721;DHT22;9489;50.948;3.114;2023-06-22T12:01:35;23.50;99.90
18721;DHT22;9489;50.948;3.114;2023-06-22T12:04:00;23.50;50.90
18721;DHT22;9489;50.948;3.114;2023-06-22T12:06:26;23.60;1.00
18721;DHT22;9489;50.948;3.114;2023-06-22T12:08:52;23.60;99.90
18721;DHT22;9489;50.948;3.114;2023-06-22T12:11:17;23.70;99.90
18721;DHT22;9489;50.948;3.114;2023-06-22T12:13:43;23.60;99.90
18721;DHT22;9489;50.948;3.114;2023-06-22T12:16:09;23.60;1.00
18721;DHT22;9489;50.948;3.114;2023-06-22T12:18:35;23.60;99.90
18721;DHT22;9489;50.948;3.114;2023-06-22T12:21:00;23.70;1.00
18721;DHT22;9489;50.948;3.114;2023-06-22T12:23:26;23.70;1.00
18721;DHT22;9489;50.948;3.114;2023-06-22T12:25:52;23.80;99.90
18721;DHT22;9489;50.948;3.114;2023-06-22T12:28:17;23.80;99.90
18721;DHT22;9489;50.948;3.114;2023-06-22T12:30:43;23.90;99.90
18721;DHT22;9489;50.948;3.114;2023-06-22T12:33:09;23.90;99.90
18721;DHT22;9489;50.948;3.114;2023-06-22T12:35:35;23.90;99.90
18721;DHT22;9489;50.948;3.114;2023-06-22T12:38:00;23.80;99.90
18721;DHT22;9489;50.948;3.114;2023-06-22T12:40:26;23.80;1.00
18721;DHT22;9489;50.948;3.114;2023-06-22T12:42:52;23.70;99.90
18721;DHT22;9489;50.948;3.114;2023-06-22T12:45:17;23.70;1.00
18721;DHT22;9489;50.948;3.114;2023-06-22T12:47:44;23.80;1.00
18721;DHT22;9489;50.948;3.114;2023-06-22T12:50:09;23.90;1.00
18721;DHT22;9489;50.948;3.114;2023-06-22T12:52:37;23.90;1.00
18721;DHT22;9489;50.948;3.114;2023-06-22T12:55:05;23.80;67.80
18721;DHT22;9489;50.948;3.114;2023-06-22T12:57:31;23.70;1.00
18721;DHT22;9489;50.948;3.114;2023-06-22T12:59:57;23.60;1.00
18721;DHT22;9489;50.948;3.114;2023-06-22T13:02:23;23.60;1.00
18721;DHT22;9489;50.948;3.114;2023-06-22T13:04:49;23.50;1.00
18721;DHT22;9489;50.948;3.114;2023-06-22T13:07:15;23.60;1.00
18721;DHT22;9489;50.948;3.114;2023-06-22T13:09:40;23.70;1.00
18721;DHT22;9489;50.948;3.114;2023-06-22T13:12:08;23.60;1.00
18721;DHT22;9489;50.948;3.114;2023-06-22T13:14:33;23.70;1.00
18721;DHT22;9489;50.948;3.114;2023-06-22T13:16:59;23.80;99.90
18721;DHT22;9489;50.948;3.114;2023-06-22T13:19:24;23.90;99.90
18721;DHT22;9489;50.948;3.114;2023-06-22T13:21:51;24.00;1.00
18721;DHT22;9489;50.948;3.114;2023-06-22T13:24:16;24.00;1.00
18721;DHT22;9489;50.948;3.114;2023-06-22T13:26:42;24.10;99.90
18721;DHT22;9489;50.948;3.114;2023-06-22T13:29:08;24.00;1.00
18721;DHT22;9489;50.948;3.114;2023-06-22T13:31:33;24.00;1.00
18721;DHT22;9489;50.948;3.114;2023-06-22T13:33:59;24.00;9.70
18721;DHT22;9489;50.948;3.114;2023-06-22T13:36:25;24.10;99.90
18721;DHT22;9489;50.948;3.114;2023-06-22T13:38:50;24.00;99.90
18721;DHT22;9489;50.948;3.114;2023-06-22T13:41:16;24.10;1.00
18721;DHT22;9489;50.948;3.114;2023-06-22T13:43:42;24.20;99.90
18721;DHT22;9489;50.948;3.114;2023-06-22T13:46:07;24.30;99.90
18721;DHT22;9489;50.948;3.114;2023-06-22T13:48:33;24.40;1.00
18721;DHT22;9489;50.948;3.114;2023-06-22T13:50:58;24.50;1.00
18721;DHT22;9489;50.948;3.114;2023-06-22T13:53:25;24.60;1.00
18721;DHT22;9489;50.948;3.114;2023-06-22T13:55:51;24.70;99.90
18721;DHT22;9489;50.948;3.114;2023-06-22T13:58:17;24.70;1.00
18721;DHT22;9489;50.948;3.114;2023-06-22T14:00:45;24.80;1.00
18721;DHT22;9489;50.948;3.114;2023-06-22T14:03:10;25.00;1.00
18721;DHT22;9489;50.948;3.114;2023-06-22T14:05:36;25.20;99.90
18721;DHT22;9489;50.948;3.114;2023-06-22T14:08:01;25.10;99.90
18721;DHT22;9489;50.948;3.114;2023-06-22T14:10:27;24.90;1.00
18721;DHT22;9489;50.948;3.114;2023-06-22T14:12:53;24.80;1.00
18721;DHT22;9489;50.948;3.114;2023-06-22T14:15:19;24.80;1.00
18721;DHT22;9489;50.948;3.114;2023-06-22T14:17:44;24.50;99.90
18721;DHT22;9489;50.948;3.114;2023-06-22T14:20:10;24.60;1.00
18721;DHT22;9489;50.948;3.114;2023-06-22T14:22:36;24.80;1.00
18721;DHT22;9489;50.948;3.114;2023-06-22T14:25:02;24.80;1.00
18721;DHT22;9489;50.948;3.114;2023-06-22T14:27:28;24.80;1.00
18721;DHT22;9489;50.948;3.114;2023-06-22T14:29:53;24.80;1.00
18721;DHT22;9489;50.948;3.114;2023-06-22T14:32:19;24.70;99.90
18721;DHT22;9489;50.948;3.114;2023-06-22T14:34:45;24.70;99.90
18721;DHT22;9489;50.948;3.114;2023-06-22T14:37:10;24.30;99.90
18721;DHT22;9489;50.948;3.114;2023-06-22T14:39:38;24.20;1.00
18721;DHT22;9489;50.948;3.114;2023-06-22T14:42:05;24.20;1.00
18721;DHT22;9489;50.948;3.114;2023-06-22T14:44:30;24.10;99.90
18721;DHT22;9489;50.948;3.114;2023-06-22T14:46:56;24.10;1.00
18721;DHT22;9489;50.948;3.114;2023-06-22T14:49:22;24.20;1.00
18721;DHT22;9489;50.948;3.114;2023-06-22T14:51:48;24.00;1.00
18721;DHT22;9489;50.948;3.114;2023-06-22T14:54:13;24.10;99.90
18721;DHT22;9489;50.948;3.114;2023-06-22T14:56:39;24.10;1.00
18721;DHT22;9489;50.948;3.114;2023-06-22T14:59:06;24.00;99.90
18721;DHT22;9489;50.948;3.114;2023-06-22T15:01:31;24.10;83.50
18721;DHT22;9489;50.948;3.114;2023-06-22T15:03:57;24.10;99.90
18721;DHT22;9489;50.948;3.114;2023-06-22T15:06:23;24.10;1.00
18721;DHT22;9489;50.948;3.114;2023-06-22T15:08:48;24.10;99.90
18721;DHT22;9489;50.948;3.114;2023-06-22T15:11:14;23.90;99.90
18721;DHT22;9489;50.948;3.114;2023-06-22T15:13:40;23.80;1.00
18721;DHT22;9489;50.948;3.114;2023-06-22T15:16:08;23.80;1.00
18721;DHT22;9489;50.948;3.114;2023-06-22T15:18:34;23.90;1.00
18721;DHT22;9489;50.948;3.114;2023-06-22T15:21:01;23.80;99.90
18721;DHT22;9489;50.948;3.114;2023-06-22T15:23:28;23.80;1.00
18721;DHT22;9489;50.948;3.114;2023-06-22T15:25:55;23.80;1.00
18721;DHT22;9489;50.948;3.114;2023-06-22T15:28:21;23.90;1.00
18721;DHT22;9489;50.948;3.114;2023-06-22T15:30:50;24.00;1.00
18721;DHT22;9489;50.948;3.114;2023-06-22T15:33:16;24.00;1.00
18721;DHT22;9489;50.948;3.114;2023-06-22T15:35:41;24.00;99.90
18721;DHT22;9489;50.948;3.114;2023-06-22T15:38:07;24.10;23.10
18721;DHT22;9489;50.948;3.114;2023-06-22T15:40:33;24.10;99.90
18721;DHT22;9489;50.948;3.114;2023-06-22T15:42:58;24.00;99.90
18721;DHT22;9489;50.948;3.114;2023-06-22T15:45:25;24.00;1.00
18721;DHT22;9489;50.948;3.114;2023-06-22T15:47:51;24.00;1.00
18721;DHT22;9489;50.948;3.114;2023-06-22T15:50:17;24.00;1.00
18721;DHT22;9489;50.948;3.114;2023-06-22T15:52:42;24.00;99.90
18721;DHT22;9489;50.948;3.114;2023-06-22T15:55:13;23.90;99.90
18721;DHT22;9489;50.948;3.114;2023-06-22T15:57:39;23.90;1.00